createdAt,value
2017-09-19T00:00:26.055Z,998.1
2017-09-19T00:01:36.412Z,998.06
2017-09-19T00:02:46.761Z,998.06
2017-09-19T00:03:56.506Z,998.02
2017-09-19T00:05:06.516Z,998.01
2017-09-19T00:06:16.862Z,998.04
2017-09-19T00:07:27.213Z,998.03
2017-09-19T00:08:37.560Z,998.03
2017-09-19T00:09:48.619Z,998
2017-09-19T00:10:59.195Z,998
2017-09-19T00:12:09.545Z,997.98
2017-09-19T00:13:19.568Z,998.02
2017-09-19T00:14:29.911Z,998
2017-09-19T00:15:40.256Z,997.99
2017-09-19T00:16:49.967Z,997.95
2017-09-19T00:18:00.314Z,997.95
2017-09-19T00:19:10.348Z,997.91
2017-09-19T00:20:20.698Z,997.91
2017-09-19T00:21:30.717Z,997.87
2017-09-19T00:22:41.058Z,997.88
2017-09-19T00:23:51.393Z,997.88
2017-09-19T00:25:01.100Z,997.86
2017-09-19T00:26:11.126Z,997.89
2017-09-19T00:27:21.153Z,997.88
2017-09-19T00:28:31.183Z,997.85
2017-09-19T00:29:41.512Z,997.87
2017-09-19T00:30:51.545Z,997.84
2017-09-19T00:32:01.904Z,997.87
2017-09-19T00:33:12.004Z,997.85
2017-09-19T00:34:22.330Z,997.87
2017-09-19T00:35:32.690Z,997.83
2017-09-19T00:36:43.023Z,997.86
2017-09-19T00:37:53.377Z,997.87
2017-09-19T00:39:03.778Z,997.85
2017-09-19T00:40:15.768Z,997.86
2017-09-19T00:41:26.097Z,997.87
2017-09-19T00:42:35.806Z,997.84
2017-09-19T00:43:46.165Z,997.82
2017-09-19T00:44:59.316Z,997.82
2017-09-19T00:46:09.661Z,997.8
2017-09-19T00:47:20.002Z,997.77
2017-09-19T00:48:30.340Z,997.77
2017-09-19T00:49:40.056Z,997.79
2017-09-19T00:50:50.380Z,997.84
2017-09-19T00:52:00.721Z,997.84
2017-09-19T00:53:11.060Z,997.81
2017-09-19T00:54:21.075Z,997.82
2017-09-19T00:55:31.407Z,997.85
2017-09-19T00:56:41.487Z,997.87
2017-09-19T00:57:51.185Z,997.86
2017-09-19T00:59:01.527Z,997.84
2017-09-19T01:00:11.873Z,997.8
2017-09-19T01:01:21.579Z,997.8
2017-09-19T01:02:31.975Z,997.8
2017-09-19T01:03:42.333Z,997.78
2017-09-19T01:04:52.677Z,997.78
2017-09-19T01:06:03.017Z,997.77
2017-09-19T01:07:13.363Z,997.76
2017-09-19T01:08:23.712Z,997.75
2017-09-19T01:09:34.056Z,997.81
2017-09-19T01:10:44.414Z,997.8
2017-09-19T01:11:54.756Z,997.8
2017-09-19T01:13:05.104Z,997.74
2017-09-19T01:14:15.444Z,997.77
2017-09-19T01:15:25.772Z,997.78
2017-09-19T01:16:36.132Z,997.78
2017-09-19T01:17:46.470Z,997.72
2017-09-19T01:18:56.176Z,997.76
2017-09-19T01:20:06.507Z,997.74
2017-09-19T01:21:16.847Z,997.69
2017-09-19T01:22:27.186Z,997.69
2017-09-19T01:23:37.205Z,997.71
2017-09-19T01:24:47.225Z,997.69
2017-09-19T01:25:57.619Z,997.66
2017-09-19T01:27:08.011Z,997.66
2017-09-19T01:28:18.346Z,997.68
2017-09-19T01:29:28.691Z,997.65
2017-09-19T01:30:39.039Z,997.68
2017-09-19T01:31:49.380Z,997.66
2017-09-19T01:32:59.709Z,997.69
2017-09-19T01:34:10.060Z,997.62
2017-09-19T01:35:20.388Z,997.59
2017-09-19T01:36:30.728Z,997.57
2017-09-19T01:37:41.066Z,997.56
2017-09-19T01:38:51.387Z,997.58
2017-09-19T01:40:01.743Z,997.6
2017-09-19T01:41:12.080Z,997.57
2017-09-19T01:42:22.416Z,997.6
2017-09-19T01:43:32.438Z,997.53
2017-09-19T01:44:42.781Z,997.53
2017-09-19T01:45:52.811Z,997.54
2017-09-19T01:47:03.160Z,997.55
2017-09-19T01:48:13.500Z,997.54
2017-09-19T01:49:23.904Z,997.5
2017-09-19T01:50:33.924Z,997.47
2017-09-19T01:51:44.261Z,997.46
2017-09-19T01:52:54.589Z,997.42
2017-09-19T01:54:04.930Z,997.46
2017-09-19T01:55:14.937Z,997.47
2017-09-19T01:56:24.642Z,997.44
2017-09-19T01:57:34.651Z,997.48
2017-09-19T01:58:44.685Z,997.47
2017-09-19T01:59:55.030Z,997.5
2017-09-19T02:01:05.370Z,997.49
2017-09-19T02:02:15.711Z,997.47
2017-09-19T02:03:26.075Z,997.47
2017-09-19T02:04:36.414Z,997.45
2017-09-19T02:05:46.761Z,997.46
2017-09-19T02:06:56.833Z,997.44
2017-09-19T02:08:10.486Z,997.44
2017-09-19T02:09:20.812Z,997.4
2017-09-19T02:10:33.294Z,997.4
2017-09-19T02:11:43.630Z,997.44
2017-09-19T02:12:53.648Z,997.44
2017-09-19T02:14:03.668Z,997.42
2017-09-19T02:15:14.015Z,997.37
2017-09-19T02:16:24.372Z,997.4
2017-09-19T02:17:34.712Z,997.39
2017-09-19T02:18:45.099Z,997.37
2017-09-19T02:19:55.124Z,997.35
2017-09-19T02:21:05.447Z,997.36
2017-09-19T02:22:15.799Z,997.3
2017-09-19T02:23:26.134Z,997.31
2017-09-19T02:24:35.565Z,997.3
2017-09-19T02:25:45.914Z,997.32
2017-09-19T02:26:56.263Z,997.33
2017-09-19T02:28:06.600Z,997.27
2017-09-19T02:29:16.963Z,997.3
2017-09-19T02:30:27.360Z,997.29
2017-09-19T02:31:37.389Z,997.27
2017-09-19T02:32:47.722Z,997.26
2017-09-19T02:33:58.061Z,997.31
2017-09-19T02:35:08.396Z,997.31
2017-09-19T02:36:18.783Z,997.28
2017-09-19T02:37:29.133Z,997.26
2017-09-19T02:38:39.489Z,997.26
2017-09-19T02:39:49.513Z,997.24
2017-09-19T02:40:59.850Z,997.24
2017-09-19T02:42:10.196Z,997.2
2017-09-19T02:43:20.554Z,997.2
2017-09-19T02:44:30.900Z,997.21
2017-09-19T02:45:41.244Z,997.16
2017-09-19T02:46:51.572Z,997.15
2017-09-19T02:48:03.833Z,997.15
2017-09-19T02:49:14.190Z,997.17
2017-09-19T02:50:24.555Z,997.17
2017-09-19T02:51:34.890Z,997.14
2017-09-19T02:52:44.913Z,997.12
2017-09-19T02:53:54.995Z,997.11
2017-09-19T02:55:05.026Z,997.12
2017-09-19T02:56:15.377Z,997.12
2017-09-19T02:57:25.401Z,997.12
2017-09-19T02:58:35.756Z,997.07
2017-09-19T02:59:46.092Z,997.07
2017-09-19T03:00:56.441Z,997.07
2017-09-19T03:02:06.778Z,997.09
2017-09-19T03:33:39.802Z,996.8
2017-09-19T03:34:50.152Z,996.8
2017-09-19T03:36:00.499Z,996.7
2017-09-19T03:37:10.831Z,996.76
2017-09-19T03:38:21.159Z,996.78
2017-09-19T03:39:31.507Z,996.78
2017-09-19T03:40:41.205Z,996.76
2017-09-19T03:41:51.220Z,996.8
2017-09-19T03:43:01.550Z,996.8
2017-09-19T03:44:11.572Z,996.77
2017-09-19T03:45:21.970Z,996.81
2017-09-19T03:46:32.317Z,996.85
2017-09-19T03:47:42.351Z,996.82
2017-09-19T03:48:52.367Z,996.87
2017-09-19T03:50:02.716Z,996.85
2017-09-19T03:51:13.106Z,996.83
2017-09-19T03:52:23.437Z,996.88
2017-09-19T03:53:33.777Z,996.83
2017-09-19T03:54:43.801Z,996.82
2017-09-19T03:55:53.842Z,996.86
2017-09-19T03:57:04.180Z,996.86
2017-09-19T03:58:14.227Z,996.84
2017-09-19T03:59:24.567Z,996.86
2017-09-19T04:00:34.900Z,996.86
2017-09-19T04:01:44.927Z,996.85
2017-09-19T04:02:54.993Z,996.9
2017-09-19T04:04:05.337Z,996.93
2017-09-19T04:05:15.366Z,996.93
2017-09-19T04:06:25.716Z,996.94
2017-09-19T04:07:36.061Z,996.93
2017-09-19T04:08:46.142Z,996.93
2017-09-19T04:09:56.472Z,996.96
2017-09-19T04:11:06.819Z,996.95
2017-09-19T04:12:16.843Z,996.96
2017-09-19T04:13:27.181Z,996.97
2017-09-19T04:14:37.207Z,996.99
2017-09-19T04:15:47.553Z,997
2017-09-19T04:16:57.906Z,997.02
2017-09-19T04:18:08.232Z,997.06
2017-09-19T04:19:18.272Z,997.04
2017-09-19T04:20:28.292Z,997.04
2017-09-19T04:21:38.632Z,997.05
2017-09-19T04:22:48.971Z,996.99
2017-09-19T04:23:59.312Z,997.01
2017-09-19T04:25:09.652Z,996.99
2017-09-19T04:26:19.724Z,997.03
2017-09-19T04:27:30.076Z,996.99
2017-09-19T04:28:40.409Z,997
2017-09-19T04:29:50.764Z,997.03
2017-09-19T04:31:00.808Z,997.04
2017-09-19T04:32:11.202Z,997.07
2017-09-19T04:33:21.532Z,997.07
2017-09-19T04:34:31.574Z,997.05
2017-09-19T04:35:41.906Z,997.07
2017-09-19T04:36:52.240Z,997.09
2017-09-19T04:38:02.576Z,997.09
2017-09-19T04:39:12.913Z,997.09
2017-09-19T04:40:23.256Z,997.11
2017-09-19T04:41:33.592Z,997.07
2017-09-19T04:42:42.988Z,997.08
2017-09-19T04:43:53.396Z,997.13
2017-09-19T04:45:03.737Z,997.13
2017-09-19T04:46:14.084Z,997.1
2017-09-19T04:47:24.111Z,997.15
2017-09-19T04:48:34.438Z,997.17
2017-09-19T04:49:44.821Z,997.18
2017-09-19T04:50:58.223Z,997.2
2017-09-19T04:52:08.553Z,997.2
2017-09-19T04:53:18.904Z,997.23
2017-09-19T04:54:29.256Z,997.24
2017-09-19T04:55:39.608Z,997.27
2017-09-19T04:56:49.658Z,997.31
2017-09-19T04:57:59.695Z,997.33
2017-09-19T04:59:10.050Z,997.3
2017-09-19T05:00:20.412Z,997.34
2017-09-19T05:01:30.753Z,997.35
2017-09-19T05:02:40.791Z,997.39
2017-09-19T05:03:51.120Z,997.36
2017-09-19T05:05:01.144Z,997.35
2017-09-19T05:06:11.504Z,997.35
2017-09-19T05:07:21.905Z,997.35
2017-09-19T05:08:32.263Z,997.37
2017-09-19T05:09:42.614Z,997.35
2017-09-19T05:10:52.973Z,997.35
2017-09-19T05:12:03.344Z,997.38
2017-09-19T05:13:13.690Z,997.37
2017-09-19T05:14:24.053Z,997.36
2017-09-19T05:15:34.419Z,997.41
2017-09-19T05:16:44.745Z,997.38
2017-09-19T05:17:55.121Z,997.33
2017-09-19T05:19:05.458Z,997.33
2017-09-19T05:20:15.496Z,997.31
2017-09-19T05:21:25.523Z,997.32
2017-09-19T05:22:35.869Z,997.29
2017-09-19T05:23:45.912Z,997.3
2017-09-19T05:24:55.944Z,997.35
2017-09-19T05:26:06.003Z,997.29
2017-09-19T05:27:16.333Z,997.3
2017-09-19T05:28:26.683Z,997.35
2017-09-19T05:29:36.731Z,997.37
2017-09-19T05:30:46.445Z,997.34
2017-09-19T05:31:56.785Z,997.36
2017-09-19T05:33:07.136Z,997.35
2017-09-19T05:34:17.465Z,997.33
2017-09-19T05:35:27.511Z,997.35
2017-09-19T05:36:37.842Z,997.42
2017-09-19T05:37:47.868Z,997.38
2017-09-19T05:38:58.204Z,997.37
2017-09-19T05:40:08.537Z,997.39
2017-09-19T05:41:18.893Z,997.41
2017-09-19T05:42:28.982Z,997.36
2017-09-19T05:43:40.451Z,997.39
2017-09-19T05:44:50.789Z,997.4
2017-09-19T05:46:00.819Z,997.43
2017-09-19T05:47:10.822Z,997.41
2017-09-19T05:48:20.845Z,997.39
2017-09-19T05:49:30.557Z,997.42
2017-09-19T05:50:40.897Z,997.42
2017-09-19T05:51:52.839Z,997.36
2017-09-19T05:53:03.781Z,997.35
2017-09-19T05:54:15.918Z,997.37
2017-09-19T05:55:26.255Z,997.37
2017-09-19T05:56:36.584Z,997.36
2017-09-19T05:57:46.603Z,997.37
2017-09-19T05:58:56.937Z,997.36
2017-09-19T06:00:07.298Z,997.38
2017-09-19T06:01:17.633Z,997.35
2017-09-19T06:02:27.384Z,997.37
2017-09-19T06:03:37.742Z,997.36
2017-09-19T06:04:48.083Z,997.38
2017-09-19T06:05:58.422Z,997.36
2017-09-19T06:07:09.967Z,997.33
2017-09-19T06:08:20.311Z,997.35
2017-09-19T06:09:30.681Z,997.33
2017-09-19T06:10:40.998Z,997.35
2017-09-19T06:11:51.021Z,997.34
2017-09-19T06:13:01.371Z,997.34
2017-09-19T06:14:11.723Z,997.34
2017-09-19T06:15:21.740Z,997.38
2017-09-19T06:16:31.766Z,997.4
2017-09-19T06:17:41.796Z,997.32
2017-09-19T06:18:51.810Z,997.36
2017-09-19T06:20:02.192Z,997.34
2017-09-19T06:21:12.519Z,997.4
2017-09-19T06:22:22.860Z,997.32
2017-09-19T06:23:33.191Z,997.39
2017-09-19T06:24:43.208Z,997.35
2017-09-19T06:25:53.230Z,997.37
2017-09-19T06:27:03.252Z,997.37
2017-09-19T06:28:13.592Z,997.37
2017-09-19T06:29:23.299Z,997.41
2017-09-19T06:30:33.657Z,997.37
2017-09-19T06:31:44.073Z,997.4
2017-09-19T06:32:54.094Z,997.37
2017-09-19T06:34:04.453Z,997.42
2017-09-19T06:35:14.778Z,997.4
2017-09-19T06:36:25.125Z,997.42
2017-09-19T06:37:35.148Z,997.37
2017-09-19T06:38:45.173Z,997.35
2017-09-19T06:39:55.518Z,997.4
2017-09-19T06:41:05.870Z,997.37
2017-09-19T06:42:18.269Z,997.38
2017-09-19T06:43:28.366Z,997.4
2017-09-19T06:44:38.075Z,997.37
2017-09-19T06:45:48.401Z,997.39
2017-09-19T06:46:58.763Z,997.41
2017-09-19T06:48:09.138Z,997.41
2017-09-19T06:49:19.471Z,997.42
2017-09-19T06:50:29.814Z,997.43
2017-09-19T06:51:40.164Z,997.43
2017-09-19T06:52:49.877Z,997.43
2017-09-19T06:54:00.950Z,997.42
2017-09-19T06:55:10.696Z,997.44
2017-09-19T06:56:21.062Z,997.4
2017-09-19T06:57:31.392Z,997.39
2017-09-19T06:58:41.430Z,997.38
2017-09-19T06:59:51.136Z,997.44
2017-09-19T07:01:01.474Z,997.43
2017-09-19T07:02:11.819Z,997.43
2017-09-19T07:03:22.157Z,997.44
2017-09-19T07:04:37.180Z,997.42
2017-09-19T07:05:47.523Z,997.46
2017-09-19T07:06:57.872Z,997.43
2017-09-19T07:08:07.898Z,997.46
2017-09-19T07:09:18.237Z,997.46
2017-09-19T07:10:27.942Z,997.45
2017-09-19T07:11:38.319Z,997.47
2017-09-19T07:12:48.674Z,997.52
2017-09-19T07:13:58.739Z,997.51
2017-09-19T07:15:09.090Z,997.53
2017-09-19T07:16:19.483Z,997.49
2017-09-19T07:17:29.841Z,997.49
2017-09-19T07:18:40.259Z,997.46
2017-09-19T07:19:50.030Z,997.49
2017-09-19T07:21:00.793Z,997.5
2017-09-19T07:22:10.804Z,997.5
2017-09-19T07:23:20.836Z,997.45
2017-09-19T07:24:31.194Z,997.44
2017-09-19T07:25:41.266Z,997.48
2017-09-19T07:26:51.306Z,997.48
2017-09-19T07:28:01.655Z,997.52
2017-09-19T07:29:11.671Z,997.49
2017-09-19T07:30:22.018Z,997.48
2017-09-19T07:31:32.047Z,997.5
2017-09-19T07:32:42.072Z,997.51
2017-09-19T07:33:52.456Z,997.46
2017-09-19T07:35:02.479Z,997.44
2017-09-19T07:36:12.815Z,997.45
2017-09-19T07:37:23.194Z,997.44
2017-09-19T07:38:33.531Z,997.44
2017-09-19T07:39:43.930Z,997.42
2017-09-19T07:40:53.958Z,997.41
2017-09-19T07:42:04.305Z,997.39
2017-09-19T07:43:14.007Z,997.38
2017-09-19T07:44:24.350Z,997.35
2017-09-19T07:45:34.686Z,997.36
2017-09-19T07:46:44.392Z,997.37
2017-09-19T07:47:54.715Z,997.37
2017-09-19T07:49:04.764Z,997.41
2017-09-19T07:50:15.176Z,997.36
2017-09-19T07:51:25.534Z,997.29
2017-09-19T07:52:35.933Z,997.36
2017-09-19T07:53:46.273Z,997.32
2017-09-19T07:54:56.616Z,997.34
2017-09-19T07:56:06.957Z,997.33
2017-09-19T07:57:16.991Z,997.3
2017-09-19T07:58:26.745Z,997.32
2017-09-19T07:59:36.781Z,997.34
2017-09-19T08:00:46.807Z,997.3
2017-09-19T08:01:56.842Z,997.29
2017-09-19T08:03:07.177Z,997.29
2017-09-19T08:04:17.198Z,997.28
2017-09-19T08:05:27.542Z,997.27
2017-09-19T08:06:37.581Z,997.29
2017-09-19T08:07:47.619Z,997.28
2017-09-19T08:08:57.650Z,997.27
2017-09-19T08:10:07.671Z,997.31
2017-09-19T08:11:18.014Z,997.29
2017-09-19T08:12:28.356Z,997.31
2017-09-19T08:13:38.687Z,997.29
2017-09-19T08:14:48.697Z,997.32
2017-09-19T08:15:59.090Z,997.28
2017-09-19T08:17:09.429Z,997.33
2017-09-19T08:18:19.823Z,997.27
2017-09-19T08:19:29.526Z,997.27
2017-09-19T08:20:39.538Z,997.26
2017-09-19T08:21:49.610Z,997.25
2017-09-19T08:22:59.633Z,997.22
2017-09-19T08:24:09.974Z,997.25
2017-09-19T08:25:20.344Z,997.24
2017-09-19T08:26:30.686Z,997.29
2017-09-19T08:27:41.023Z,997.22
2017-09-19T08:28:51.040Z,997.24
2017-09-19T08:30:01.385Z,997.23
2017-09-19T08:31:11.079Z,997.24
2017-09-19T08:32:21.105Z,997.3
2017-09-19T08:33:31.192Z,997.23
2017-09-19T08:34:41.530Z,997.22
2017-09-19T08:35:51.878Z,997.28
2017-09-19T08:37:04.414Z,997.24
2017-09-19T08:38:14.431Z,997.21
2017-09-19T08:39:24.540Z,997.19
2017-09-19T08:40:34.888Z,997.17
2017-09-19T08:41:45.239Z,997.21
2017-09-19T08:42:55.591Z,997.23
2017-09-19T08:44:05.937Z,997.22
2017-09-19T08:45:16.340Z,997.21
2017-09-19T08:46:29.391Z,997.16
2017-09-19T08:47:39.725Z,997.14
2017-09-19T08:48:52.482Z,997.13
2017-09-19T08:50:02.845Z,997.11
2017-09-19T08:51:13.204Z,997.14
2017-09-19T08:52:23.227Z,997.16
2017-09-19T08:53:33.576Z,997.13
2017-09-19T08:54:43.914Z,997.14
2017-09-19T08:55:53.953Z,997.07
2017-09-19T08:57:04.017Z,997.08
2017-09-19T08:58:14.345Z,997.07
2017-09-19T08:59:24.381Z,997.02
2017-09-19T09:00:34.726Z,997.02
2017-09-19T09:01:45.076Z,997.04
2017-09-19T09:02:55.482Z,997.06
2017-09-19T09:04:05.507Z,997.01
2017-09-19T09:05:15.865Z,997.01
2017-09-19T09:06:25.888Z,996.94
2017-09-19T09:07:35.911Z,996.97
2017-09-19T09:08:46.294Z,996.98
2017-09-19T09:09:56.631Z,996.95
2017-09-19T09:11:06.976Z,996.93
2017-09-19T09:12:17.326Z,996.94
2017-09-19T09:13:27.709Z,996.94
2017-09-19T09:14:38.054Z,996.94
2017-09-19T09:15:48.439Z,996.94
2017-09-19T09:16:58.794Z,996.92
2017-09-19T09:18:08.829Z,996.93
2017-09-19T09:19:18.561Z,996.94
2017-09-19T09:20:28.589Z,996.94
2017-09-19T09:21:38.611Z,996.94
2017-09-19T09:22:48.957Z,996.92
2017-09-19T09:23:59.309Z,996.94
2017-09-19T09:25:09.335Z,996.99
2017-09-19T09:26:19.416Z,996.91
2017-09-19T09:27:29.767Z,996.91
2017-09-19T09:28:40.087Z,996.96
2017-09-19T09:29:50.427Z,996.93
2017-09-19T09:31:00.779Z,996.94
2017-09-19T09:32:10.811Z,996.95
2017-09-19T09:33:21.155Z,996.88
2017-09-19T09:34:31.176Z,996.84
2017-09-19T09:35:41.516Z,996.86
2017-09-19T09:36:51.572Z,996.76
2017-09-19T09:38:01.961Z,996.73
2017-09-19T09:39:12.306Z,996.7
2017-09-19T09:40:22.333Z,996.74
2017-09-19T09:41:32.679Z,996.79
2017-09-19T09:42:43.026Z,996.75
2017-09-19T09:43:53.419Z,996.73
2017-09-19T09:45:03.436Z,996.7
2017-09-19T09:46:13.783Z,996.7
2017-09-19T09:47:23.543Z,996.74
2017-09-19T09:48:33.571Z,996.73
2017-09-19T09:49:46.626Z,996.72
2017-09-19T09:50:56.344Z,996.71
2017-09-19T09:52:06.707Z,996.76
2017-09-19T09:53:17.049Z,996.69
2017-09-19T09:54:27.426Z,996.73
2017-09-19T09:55:37.439Z,996.68
2017-09-19T09:56:47.783Z,996.66
2017-09-19T09:57:58.268Z,996.63
2017-09-19T09:59:08.861Z,996.63
2017-09-19T10:00:18.928Z,996.67
2017-09-19T10:02:56.819Z,996.62
2017-09-19T10:04:07.165Z,996.66
2017-09-19T10:05:17.227Z,996.64
2017-09-19T10:06:30.407Z,996.61
2017-09-19T10:07:40.445Z,996.64
2017-09-19T10:08:50.486Z,996.6
2017-09-19T10:10:00.843Z,996.63
2017-09-19T10:11:11.262Z,996.59
2017-09-19T10:12:21.624Z,996.61
2017-09-19T10:13:31.990Z,996.61
2017-09-19T10:14:42.347Z,996.59
2017-09-19T10:15:52.697Z,996.62
2017-09-19T10:17:03.093Z,996.59
2017-09-19T10:18:13.475Z,996.56
2017-09-19T10:19:23.857Z,996.56
2017-09-19T10:20:33.876Z,996.59
2017-09-19T10:21:43.913Z,996.57
2017-09-19T10:22:53.994Z,996.55
2017-09-19T10:24:04.368Z,996.56
2017-09-19T10:25:14.731Z,996.56
2017-09-19T10:26:25.093Z,996.55
2017-09-19T10:27:35.479Z,996.5
2017-09-19T10:28:45.871Z,996.55
2017-09-19T10:29:55.907Z,996.53
2017-09-19T10:31:05.930Z,996.55
2017-09-19T10:32:16.306Z,996.55
2017-09-19T10:33:29.310Z,996.56
2017-09-19T10:34:39.367Z,996.53
2017-09-19T10:35:51.372Z,996.57
2017-09-19T10:37:01.736Z,996.55
2017-09-19T10:38:12.107Z,996.54
2017-09-19T10:39:22.479Z,996.54
2017-09-19T10:40:32.601Z,996.53
2017-09-19T10:41:42.953Z,996.58
2017-09-19T10:42:53.317Z,996.56
2017-09-19T10:44:03.349Z,996.51
2017-09-19T10:45:13.057Z,996.53
2017-09-19T10:46:23.106Z,996.49
2017-09-19T10:47:33.469Z,996.48
2017-09-19T10:48:43.851Z,996.44
2017-09-19T10:49:54.199Z,996.45
2017-09-19T10:51:04.547Z,996.44
2017-09-19T10:52:14.916Z,996.45
2017-09-19T10:53:24.978Z,996.45
2017-09-19T10:54:35.006Z,996.46
2017-09-19T10:55:44.401Z,996.42
2017-09-19T10:56:54.489Z,996.45
2017-09-19T10:58:04.869Z,996.39
2017-09-19T10:59:14.599Z,996.4
2017-09-19T11:00:29.891Z,996.34
2017-09-19T11:01:40.243Z,996.36
2017-09-19T11:02:49.998Z,996.32
2017-09-19T11:04:00.343Z,996.32
2017-09-19T11:05:10.684Z,996.31
2017-09-19T11:06:21.038Z,996.33
2017-09-19T11:07:30.436Z,996.3
2017-09-19T11:08:40.552Z,996.33
2017-09-19T11:09:50.598Z,996.35
2017-09-19T11:11:00.930Z,996.31
2017-09-19T11:12:11.321Z,996.34
2017-09-19T11:13:21.336Z,996.35
2017-09-19T11:14:31.656Z,996.31
2017-09-19T11:15:42.010Z,996.29
2017-09-19T11:16:52.359Z,996.26
2017-09-19T11:18:02.435Z,996.24
2017-09-19T11:19:12.817Z,996.2
2017-09-19T11:20:23.230Z,996.19
2017-09-19T11:21:33.624Z,996.25
2017-09-19T11:22:43.354Z,996.19
2017-09-19T11:23:53.385Z,996.16
2017-09-19T11:25:03.792Z,996.17
2017-09-19T11:26:13.893Z,996.17
2017-09-19T11:27:24.261Z,996.15
2017-09-19T11:28:34.306Z,996.13
2017-09-19T11:29:44.352Z,996.1
2017-09-19T11:30:54.729Z,996.06
2017-09-19T11:32:05.942Z,996.09
2017-09-19T11:33:15.972Z,996.05
2017-09-19T11:34:25.999Z,996.06
2017-09-19T11:35:36.363Z,996.08
2017-09-19T11:36:46.723Z,996.02
2017-09-19T11:37:56.839Z,996.02
2017-09-19T11:39:07.202Z,996.02
2017-09-19T11:40:17.554Z,995.97
2017-09-19T11:41:27.897Z,995.97
2017-09-19T11:42:38.263Z,995.99
2017-09-19T11:43:48.721Z,995.98
2017-09-19T11:44:59.076Z,995.98
2017-09-19T11:46:09.429Z,995.96
2017-09-19T11:47:19.452Z,995.92
2017-09-19T11:48:29.808Z,995.94
2017-09-19T11:49:39.847Z,995.94
2017-09-19T11:50:50.207Z,995.91
2017-09-19T11:52:00.233Z,995.89
2017-09-19T11:53:10.619Z,995.85
2017-09-19T11:54:20.975Z,995.89
2017-09-19T11:55:31.398Z,995.85
2017-09-19T11:56:41.758Z,995.89
2017-09-19T11:57:52.108Z,995.9
2017-09-19T11:59:02.498Z,995.88
2017-09-19T12:00:12.863Z,995.86
2017-09-19T12:01:22.627Z,995.86
2017-09-19T12:02:32.978Z,995.89
2017-09-19T12:03:42.679Z,995.88
2017-09-19T12:04:53.035Z,995.89
2017-09-19T12:06:03.385Z,995.87
2017-09-19T12:07:13.484Z,995.9
2017-09-19T12:08:23.511Z,995.89
2017-09-19T12:09:33.874Z,995.89
2017-09-19T12:10:44.244Z,995.82
2017-09-19T12:11:54.292Z,995.83
2017-09-19T12:13:04.393Z,995.84
2017-09-19T12:14:14.423Z,995.77
2017-09-19T12:15:24.797Z,995.76
2017-09-19T12:16:35.153Z,995.78
2017-09-19T12:17:45.508Z,995.78
2017-09-19T12:18:55.868Z,995.72
2017-09-19T12:20:06.245Z,995.7
2017-09-19T12:21:16.612Z,995.76
2017-09-19T12:22:26.963Z,995.68
2017-09-19T12:23:37.308Z,995.66
2017-09-19T12:24:47.016Z,995.62
2017-09-19T12:25:56.734Z,995.6
2017-09-19T12:27:07.098Z,995.64
2017-09-19T12:28:16.797Z,995.56
2017-09-19T12:29:27.156Z,995.58
2017-09-19T12:30:37.592Z,995.55
2017-09-19T12:31:50.309Z,995.53
2017-09-19T12:33:00.669Z,995.54
2017-09-19T12:34:10.686Z,995.52
2017-09-19T12:35:21.045Z,995.51
2017-09-19T12:36:31.399Z,995.46
2017-09-19T12:37:41.748Z,995.49
2017-09-19T12:38:52.092Z,995.51
2017-09-19T12:40:02.449Z,995.43
2017-09-19T12:41:12.796Z,995.47
2017-09-19T12:42:23.202Z,995.41
2017-09-19T12:43:33.225Z,995.38
2017-09-19T12:44:43.609Z,995.41
2017-09-19T12:45:53.657Z,995.37
2017-09-19T12:47:04.039Z,995.32
2017-09-19T12:48:14.393Z,995.37
2017-09-19T12:49:24.725Z,995.36
2017-09-19T12:50:35.071Z,995.34
2017-09-19T12:51:45.428Z,995.32
2017-09-19T12:52:55.776Z,995.31
2017-09-19T12:54:06.188Z,995.29
2017-09-19T12:55:16.560Z,995.29
2017-09-19T12:56:26.609Z,995.29
2017-09-19T12:57:36.961Z,995.28
2017-09-19T12:58:47.505Z,995.21
2017-09-19T12:59:57.540Z,995.23
2017-09-19T13:01:09.036Z,995.28
2017-09-19T13:02:21.479Z,995.28
2017-09-19T13:03:33.601Z,995.22
2017-09-19T13:04:43.635Z,995.25
2017-09-19T13:05:53.980Z,995.3
2017-09-19T13:07:04.349Z,995.28
2017-09-19T13:08:14.714Z,995.25
2017-09-19T13:09:25.060Z,995.24
2017-09-19T13:10:35.413Z,995.25
2017-09-19T13:11:45.792Z,995.26
2017-09-19T13:12:55.814Z,995.24
2017-09-19T13:14:08.780Z,995.25
2017-09-19T13:15:19.157Z,995.23
2017-09-19T13:16:29.568Z,995.2
2017-09-19T13:17:39.937Z,995.21
2017-09-19T13:18:50.297Z,995.24
2017-09-19T13:20:00.662Z,995.23
2017-09-19T13:21:11.000Z,995.27
2017-09-19T13:22:21.357Z,995.25
2017-09-19T13:23:31.426Z,995.29
2017-09-19T13:24:41.150Z,995.27
2017-09-19T13:25:50.891Z,995.26
2017-09-19T13:27:00.608Z,995.29
2017-09-19T13:28:10.977Z,995.25
2017-09-19T13:29:21.380Z,995.25
2017-09-19T13:30:31.096Z,995.28
2017-09-19T13:31:41.498Z,995.27
2017-09-19T13:32:52.691Z,995.27
2017-09-19T13:34:03.065Z,995.34
2017-09-19T13:35:13.460Z,995.32
2017-09-19T13:36:23.816Z,995.26
2017-09-19T13:37:33.848Z,995.28
2017-09-19T13:38:46.639Z,995.25
2017-09-19T13:39:56.670Z,995.25
2017-09-19T13:41:07.019Z,995.21
2017-09-19T13:42:18.759Z,995.21
2017-09-19T13:43:28.776Z,995.26
2017-09-19T13:44:39.110Z,995.21
2017-09-19T13:45:49.461Z,995.19
2017-09-19T13:46:59.847Z,995.2
2017-09-19T13:48:09.604Z,995.17
2017-09-19T13:49:19.952Z,995.22
2017-09-19T13:50:29.990Z,995.21
2017-09-19T13:51:40.325Z,995.2
2017-09-19T13:52:50.699Z,995.23
2017-09-19T13:54:01.041Z,995.24
2017-09-19T13:55:11.400Z,995.23
2017-09-19T13:56:21.757Z,995.25
2017-09-19T13:57:31.800Z,995.2
2017-09-19T13:58:42.193Z,995.24
2017-09-19T13:59:52.246Z,995.25
2017-09-19T14:01:02.580Z,995.23
2017-09-19T14:02:12.942Z,995.26
2017-09-19T14:03:22.975Z,995.24
2017-09-19T14:04:33.340Z,995.2
2017-09-19T14:05:43.401Z,995.22
2017-09-19T14:06:53.762Z,995.21
2017-09-19T14:08:04.123Z,995.22
2017-09-19T14:09:14.924Z,995.16
2017-09-19T14:10:25.353Z,995.18
2017-09-19T14:11:35.700Z,995.16
2017-09-19T14:12:46.131Z,995.18
2017-09-19T14:13:56.424Z,995.18
2017-09-19T14:15:06.795Z,995.18
2017-09-19T14:16:17.183Z,995.16
2017-09-19T14:17:27.529Z,995.15
2017-09-19T14:18:37.879Z,995.1
2017-09-19T14:19:47.938Z,995.08
2017-09-19T14:20:58.322Z,995.03
2017-09-19T14:22:08.407Z,995.1
2017-09-19T14:23:18.778Z,995.11
2017-09-19T14:24:31.439Z,995.08
2017-09-19T14:25:41.483Z,995.07
2017-09-19T14:26:51.834Z,995.06
2017-09-19T14:28:02.184Z,995.03
2017-09-19T14:29:12.544Z,995.03
2017-09-19T14:30:22.586Z,995.04
2017-09-19T14:31:32.936Z,995.02
2017-09-19T14:32:43.278Z,995.04
2017-09-19T14:33:53.371Z,995.04
2017-09-19T14:35:03.721Z,995.03
2017-09-19T14:36:14.074Z,995.03
2017-09-19T14:37:24.490Z,995.01
2017-09-19T14:38:34.524Z,995
2017-09-19T14:39:44.872Z,995.03
2017-09-19T14:40:55.226Z,995
2017-09-19T14:42:05.588Z,995.02
2017-09-19T14:43:15.936Z,995.03
2017-09-19T14:44:26.306Z,995.11
2017-09-19T14:45:36.758Z,995.08
2017-09-19T14:46:47.147Z,995.1
2017-09-19T14:47:56.877Z,995.06
2017-09-19T14:49:07.251Z,995.07
2017-09-19T14:50:17.619Z,995.09
2017-09-19T14:51:27.982Z,995.07
2017-09-19T14:52:38.347Z,995.07
2017-09-19T14:53:48.383Z,995.09
2017-09-19T14:54:58.740Z,995.06
2017-09-19T14:56:09.091Z,995.07
2017-09-19T14:57:19.529Z,995.08
2017-09-19T14:58:29.925Z,995.04
2017-09-19T14:59:39.970Z,995.07
2017-09-19T15:00:50.340Z,995.06
2017-09-19T15:02:00.704Z,995.05
2017-09-19T15:03:10.425Z,995
2017-09-19T15:04:20.460Z,995
2017-09-19T15:05:32.127Z,994.99
2017-09-19T15:06:42.533Z,995.02
2017-09-19T15:07:52.928Z,994.99
2017-09-19T15:09:03.294Z,995.04
2017-09-19T15:10:13.655Z,995.01
2017-09-19T15:11:24.012Z,995.02
2017-09-19T15:12:34.058Z,995.03